createdAt,value
2022-08-22T00:01:20.318Z,6.25
2022-08-22T00:02:53.828Z,4.82
2022-08-22T00:03:01.919Z,4.88
2022-08-22T00:03:04.491Z,4.45
2022-08-22T00:04:33.400Z,6.25
2022-08-22T00:07:13.168Z,7.10
2022-08-22T00:09:57.346Z,6.40
2022-08-22T00:12:41.773Z,6.55
2022-08-22T00:15:42.581Z,6.90
2022-08-22T00:18:25.181Z,6.20
2022-08-22T00:21:10.122Z,6.80
2022-08-22T00:23:53.968Z,6.97
2022-08-22T00:26:54.403Z,7.22
2022-08-22T00:29:30.395Z,7.95
2022-08-22T00:32:23.906Z,7.00
2022-08-22T00:35:22.616Z,7.97
2022-08-22T00:38:14.257Z,7.72
2022-08-22T00:40:49.930Z,7.28
2022-08-22T00:43:31.542Z,7.80
2022-08-22T00:48:54.883Z,7.75
2022-08-22T00:51:49.764Z,7.70
2022-08-22T00:54:34.461Z,7.97
2022-08-22T00:57:19.558Z,8.10
2022-08-22T01:00:13.170Z,7.88
2022-08-22T01:03:17.039Z,8.00
2022-08-22T01:06:31.684Z,7.68
2022-08-22T01:09:05.052Z,7.57
2022-08-22T01:11:50.217Z,7.80
2022-08-22T01:14:52.548Z,8.10
2022-08-22T01:17:53.331Z,7.90
2022-08-22T01:20:37.604Z,7.72
2022-08-22T01:23:25.305Z,8.38
2022-08-22T01:26:30.738Z,7.90
2022-08-22T01:29:15.965Z,7.55
2022-08-22T01:32:19.773Z,7.95
2022-08-22T01:35:24.711Z,8.20
2022-08-22T01:38:31.299Z,8.43
2022-08-22T01:41:45.646Z,7.93
2022-08-22T01:44:59.813Z,8.07
2022-08-22T01:47:48.119Z,8.20
2022-08-22T01:50:36.619Z,8.30
2022-08-22T01:53:20.181Z,7.65
2022-08-22T01:56:11.406Z,7.53
2022-08-22T01:58:45.180Z,7.53
2022-08-22T02:01:46.788Z,7.70
2022-08-22T02:04:43.399Z,7.45
2022-08-22T02:07:40.118Z,7.22
2022-08-22T02:10:40.162Z,7.43
2022-08-22T02:13:12.916Z,8.00
2022-08-22T02:15:39.688Z,7.65
2022-08-22T02:18:06.183Z,7.82
2022-08-22T02:20:39.263Z,7.82
2022-08-22T02:23:19.519Z,8.32
2022-08-22T02:25:50.961Z,8.30
2022-08-22T02:28:37.912Z,7.75
2022-08-22T02:31:37.274Z,8.00
2022-08-22T02:34:16.905Z,7.88
2022-08-22T02:36:53.750Z,7.88
2022-08-22T02:39:37.423Z,8.00
2022-08-22T02:42:18.870Z,8.45
2022-08-22T02:45:16.221Z,8.30
2022-08-22T02:48:00.666Z,8.25
2022-08-22T02:50:46.529Z,8.70
2022-08-22T02:53:44.408Z,8.25
2022-08-22T02:56:33.245Z,8.88
2022-08-22T02:59:23.193Z,8.80
2022-08-22T03:01:51.166Z,8.75
2022-08-22T03:04:32.677Z,9.18
2022-08-22T03:07:27.608Z,9.40
2022-08-22T03:10:37.966Z,9.38
2022-08-22T03:13:33.522Z,9.60
2022-08-22T03:16:08.367Z,9.80
2022-08-22T03:18:49.719Z,9.38
2022-08-22T03:21:37.391Z,9.70
2022-08-22T03:24:29.080Z,9.05
2022-08-22T03:27:09.510Z,9.50
2022-08-22T03:29:40.450Z,9.70
2022-08-22T03:32:11.767Z,9.57
2022-08-22T03:34:54.472Z,9.63
2022-08-22T03:37:35.853Z,9.55
2022-08-22T03:40:20.130Z,9.38
2022-08-22T03:42:55.927Z,9.63
2022-08-22T03:45:41.099Z,9.10
2022-08-22T03:48:38.744Z,9.10
2022-08-22T03:51:22.256Z,9.00
2022-08-22T03:54:07.437Z,9.30
2022-08-22T03:56:58.901Z,9.20
2022-08-22T04:00:20.854Z,9.30
2022-08-22T04:03:11.843Z,9.60
2022-08-22T04:05:58.098Z,8.90
2022-08-22T04:08:44.804Z,9.73
2022-08-22T04:11:31.607Z,9.23
2022-08-22T04:14:24.207Z,9.18
2022-08-22T04:17:24.620Z,9.10
2022-08-22T04:20:05.322Z,9.35
2022-08-22T04:22:52.579Z,9.35
2022-08-22T04:25:27.804Z,9.10
2022-08-22T04:28:12.944Z,9.55
2022-08-22T04:30:50.420Z,9.85
2022-08-22T04:33:30.335Z,9.25
2022-08-22T04:36:05.318Z,9.85
2022-08-22T04:38:48.684Z,9.93
2022-08-22T04:41:48.960Z,9.60
2022-08-22T04:44:33.765Z,9.32
2022-08-22T04:47:08.233Z,9.35
2022-08-22T04:49:41.707Z,9.77
2022-08-22T04:52:08.136Z,9.60
2022-08-22T04:54:48.430Z,9.73
2022-08-22T04:57:19.445Z,9.60
2022-08-22T04:59:46.175Z,10.60
2022-08-22T05:02:22.212Z,10.45
2022-08-22T05:05:13.611Z,11.02
2022-08-22T05:07:52.065Z,11.02
2022-08-22T05:10:23.229Z,10.93
2022-08-22T05:12:55.455Z,11.13
2022-08-22T05:15:27.617Z,10.65
2022-08-22T05:17:58.010Z,11.00
2022-08-22T05:20:27.567Z,11.10
2022-08-22T05:23:05.875Z,11.07
2022-08-22T05:25:38.396Z,10.60
2022-08-22T05:28:15.714Z,10.93
2022-08-22T05:30:45.849Z,11.15
2022-08-22T05:33:22.818Z,11.35
2022-08-22T05:35:59.089Z,10.20
2022-08-22T05:38:31.494Z,10.60
2022-08-22T05:41:16.960Z,10.95
2022-08-22T05:43:45.159Z,10.80
2022-08-22T05:46:24.614Z,10.77
2022-08-22T05:49:00.092Z,10.98
2022-08-22T05:51:35.551Z,10.70
2022-08-22T05:54:34.493Z,11.05
2022-08-22T05:57:23.743Z,10.52
2022-08-22T05:59:57.716Z,11.45
2022-08-22T06:02:44.817Z,11.55
2022-08-22T06:05:12.396Z,11.98
2022-08-22T06:07:46.368Z,11.88
2022-08-22T06:10:31.141Z,12.07
2022-08-22T06:13:06.670Z,11.82
2022-08-22T06:15:53.464Z,12.55
2022-08-22T06:18:24.568Z,12.25
2022-08-22T06:20:55.936Z,12.23
2022-08-22T06:23:30.102Z,12.15
2022-08-22T06:26:00.060Z,12.55
2022-08-22T06:28:32.707Z,12.82
2022-08-22T06:31:02.175Z,13.25
2022-08-22T06:33:32.827Z,12.20
2022-08-22T06:36:25.676Z,12.90
2022-08-22T06:39:21.086Z,13.00
2022-08-22T06:41:52.623Z,13.27
2022-08-22T06:46:55.373Z,12.40
2022-08-22T06:49:24.665Z,13.15
2022-08-22T06:51:51.863Z,12.88
2022-08-22T06:54:23.884Z,12.82
2022-08-22T06:56:53.126Z,13.07
2022-08-22T06:59:25.881Z,13.18
2022-08-22T07:02:05.046Z,13.63
2022-08-22T07:04:31.872Z,13.93
2022-08-22T07:07:01.236Z,13.68
2022-08-22T07:09:35.481Z,13.50
2022-08-22T07:12:10.958Z,13.55
2022-08-22T07:14:43.589Z,14.52
2022-08-22T07:17:18.683Z,14.02
2022-08-22T07:19:53.951Z,14.05
2022-08-22T07:22:28.239Z,15.00
2022-08-22T07:25:00.671Z,14.75
2022-08-22T07:28:00.349Z,14.32
2022-08-22T07:30:55.057Z,14.50
2022-08-22T07:33:40.779Z,15.30
2022-08-22T07:36:46.785Z,15.75
2022-08-22T07:39:19.390Z,15.07
2022-08-22T07:42:11.269Z,15.68
2022-08-22T07:45:01.555Z,15.68
2022-08-22T07:47:50.181Z,15.73
2022-08-22T07:50:23.261Z,15.15
2022-08-22T07:52:51.837Z,15.77
2022-08-22T07:55:26.191Z,15.75
2022-08-22T07:57:59.093Z,16.00
2022-08-22T08:00:28.914Z,16.77
2022-08-22T08:03:02.648Z,16.52
2022-08-22T08:05:32.749Z,16.42
2022-08-22T08:08:07.724Z,17.58
2022-08-22T08:10:39.567Z,17.05
2022-08-22T08:13:12.930Z,18.00
2022-08-22T08:15:42.976Z,18.35
2022-08-22T08:18:19.107Z,18.25
2022-08-22T08:20:54.547Z,19.15
2022-08-22T08:23:23.381Z,19.05
2022-08-22T08:26:06.956Z,17.42
2022-08-22T08:28:41.281Z,18.70
2022-08-22T08:31:17.861Z,17.50
2022-08-22T08:33:47.391Z,17.92
2022-08-22T08:36:29.126Z,18.17
2022-08-22T08:41:37.329Z,18.80
2022-08-22T08:44:30.575Z,18.98
2022-08-22T08:47:35.710Z,18.73
2022-08-22T08:50:29.236Z,18.50
2022-08-22T08:53:26.560Z,18.02
2022-08-22T08:56:47.304Z,18.08
2022-08-22T08:59:40.407Z,15.77
2022-08-22T09:02:23.508Z,15.45
2022-08-22T09:05:08.588Z,13.68
2022-08-22T09:08:13.596Z,13.88
2022-08-22T09:10:58.624Z,13.20
2022-08-22T09:13:50.290Z,12.27
2022-08-22T09:19:19.751Z,10.30
2022-08-22T09:22:07.387Z,10.60
2022-08-22T09:24:59.457Z,10.35
2022-08-22T09:27:26.261Z,9.70
2022-08-22T09:30:14.203Z,8.80
2022-08-22T09:32:59.420Z,8.20
2022-08-22T09:35:46.948Z,10.18
2022-08-22T09:38:48.269Z,9.77
2022-08-22T09:41:35.420Z,9.57
2022-08-22T09:44:19.696Z,9.70
2022-08-22T09:46:54.968Z,9.18
2022-08-22T09:49:48.237Z,8.68
2022-08-22T09:52:34.205Z,8.88
2022-08-22T09:55:35.442Z,9.00
2022-08-22T09:58:18.077Z,9.55
2022-08-22T10:00:55.584Z,9.20
2022-08-22T10:03:33.046Z,9.02
2022-08-22T10:06:13.227Z,9.18
2022-08-22T10:08:53.693Z,9.35
2022-08-22T10:11:32.135Z,8.63
2022-08-22T10:14:08.091Z,7.65
2022-08-22T10:16:43.057Z,7.95
2022-08-22T10:19:32.300Z,8.68
2022-08-22T10:22:08.433Z,8.13
2022-08-22T10:24:43.698Z,8.82
2022-08-22T10:27:19.715Z,8.00
2022-08-22T10:30:08.039Z,8.40
2022-08-22T10:32:59.128Z,9.05
2022-08-22T10:35:51.464Z,7.97
2022-08-22T10:38:27.838Z,8.13
2022-08-22T10:41:19.651Z,8.45
2022-08-22T10:44:04.057Z,7.70
2022-08-22T10:46:38.943Z,6.80
2022-08-22T10:49:19.616Z,7.43
2022-08-22T10:51:56.754Z,7.70
2022-08-22T10:54:51.155Z,7.85
2022-08-22T10:57:52.992Z,7.60
2022-08-22T11:00:58.252Z,6.93
2022-08-22T11:03:45.512Z,7.20
2022-08-22T11:06:33.448Z,7.25
2022-08-22T11:09:19.813Z,6.30
2022-08-22T11:12:12.590Z,6.57
2022-08-22T11:14:59.558Z,6.32
2022-08-22T11:17:31.017Z,6.75
2022-08-22T11:20:21.519Z,6.40
2022-08-22T11:23:05.445Z,6.75
2022-08-22T11:25:56.745Z,6.75
2022-08-22T11:28:50.900Z,6.82
2022-08-22T11:31:55.429Z,6.20
2022-08-22T11:34:37.077Z,5.47
2022-08-22T11:37:11.775Z,6.07
2022-08-22T11:40:18.924Z,5.72
2022-08-22T11:43:07.538Z,5.45
2022-08-22T11:45:49.306Z,5.57
2022-08-22T11:48:21.921Z,5.57
2022-08-22T11:51:24.847Z,5.80
2022-08-22T11:54:19.692Z,5.50
2022-08-22T11:57:03.050Z,6.05
2022-08-22T11:59:55.522Z,5.80
2022-08-22T12:03:00.055Z,5.63
2022-08-22T12:05:34.350Z,5.70
2022-08-22T12:08:11.326Z,5.82
2022-08-22T12:10:48.839Z,5.43
2022-08-22T12:13:35.049Z,5.53
2022-08-22T12:16:02.009Z,5.70
2022-08-22T12:18:52.914Z,5.28
2022-08-22T12:21:24.369Z,5.43
2022-08-22T12:24:11.177Z,5.22
2022-08-22T12:27:07.828Z,5.43
2022-08-22T12:30:03.349Z,5.35
2022-08-22T12:32:49.050Z,5.30
2022-08-22T12:35:45.953Z,5.50
2022-08-22T12:38:46.929Z,5.53
2022-08-22T12:41:46.649Z,5.57
2022-08-22T12:44:24.688Z,5.10
2022-08-22T12:47:14.150Z,5.57
2022-08-22T12:49:54.024Z,5.60
2022-08-22T12:52:55.918Z,5.28
2022-08-22T12:55:33.658Z,5.35
2022-08-22T12:58:11.636Z,5.55
2022-08-22T13:00:45.093Z,5.40
2022-08-22T13:03:35.281Z,5.82
2022-08-22T13:06:26.884Z,5.55
2022-08-22T13:08:54.254Z,5.50
2022-08-22T13:11:23.588Z,5.50
2022-08-22T13:14:00.341Z,5.43
2022-08-22T13:16:49.038Z,5.38
2022-08-22T13:19:26.995Z,5.03
2022-08-22T13:22:02.394Z,5.05
2022-08-22T13:24:55.060Z,5.30
2022-08-22T13:27:29.812Z,6.20
2022-08-22T13:30:05.687Z,5.05
2022-08-22T13:32:45.378Z,5.38
2022-08-22T13:35:30.201Z,5.28
2022-08-22T13:38:05.564Z,5.45
2022-08-22T13:40:33.961Z,5.30
2022-08-22T13:43:11.288Z,5.45
2022-08-22T13:45:41.856Z,5.70
2022-08-22T13:48:12.611Z,5.47
2022-08-22T13:51:04.620Z,5.25
2022-08-22T13:53:50.065Z,5.45
2022-08-22T13:56:44.137Z,5.45
2022-08-22T13:59:50.184Z,5.57
2022-08-22T14:02:37.299Z,5.25
2022-08-22T14:05:12.223Z,5.68
2022-08-22T14:08:12.469Z,5.55
2022-08-22T14:10:45.765Z,5.68
2022-08-22T14:13:29.623Z,5.72
2022-08-22T14:16:06.406Z,5.25
2022-08-22T14:18:46.126Z,5.70
2022-08-22T14:21:33.569Z,5.43
2022-08-22T14:24:25.893Z,5.63
2022-08-22T14:26:57.918Z,5.57
2022-08-22T14:29:28.323Z,5.20
2022-08-22T14:32:31.001Z,5.20
2022-08-22T14:35:25.455Z,5.35
2022-08-22T14:38:32.622Z,5.40
2022-08-22T14:41:05.463Z,5.43
2022-08-22T14:43:31.996Z,5.05
2022-08-22T14:46:07.408Z,5.28
2022-08-22T14:48:42.905Z,5.32
2022-08-22T14:51:21.221Z,5.20
2022-08-22T14:53:48.246Z,5.30
2022-08-22T14:56:27.999Z,5.35
2022-08-22T14:59:02.232Z,5.50
2022-08-22T15:01:32.892Z,5.30
2022-08-22T15:04:09.538Z,5.22
2022-08-22T15:06:47.692Z,5.72
2022-08-22T15:09:37.729Z,5.85
2022-08-22T15:12:30.588Z,5.47
2022-08-22T15:15:01.241Z,5.15
2022-08-22T15:17:32.188Z,5.35
2022-08-22T15:20:11.782Z,5.10
2022-08-22T15:22:40.851Z,5.55
2022-08-22T15:25:17.255Z,5.28
2022-08-22T15:28:14.225Z,5.45
2022-08-22T15:31:06.784Z,5.15
2022-08-22T15:33:39.892Z,5.15
2022-08-22T15:36:21.346Z,4.97
2022-08-22T15:38:52.094Z,5.07
2022-08-22T15:41:21.579Z,5.45
2022-08-22T15:43:52.279Z,5.38
2022-08-22T15:46:21.718Z,5.50
2022-08-22T15:49:11.751Z,5.00
2022-08-22T15:51:50.348Z,5.05
2022-08-22T15:54:41.573Z,5.15
2022-08-22T15:57:31.460Z,4.90
2022-08-22T16:00:01.919Z,4.82
2022-08-22T16:02:41.678Z,5.15
2022-08-22T16:05:11.254Z,5.03
2022-08-22T16:07:40.003Z,5.07
2022-08-22T16:10:12.960Z,5.30
2022-08-22T16:12:45.856Z,4.95
2022-08-22T16:15:54.163Z,5.10
2022-08-22T16:18:48.891Z,4.87
2022-08-22T16:21:16.464Z,5.20
2022-08-22T16:23:56.606Z,5.65
2022-08-22T16:26:30.589Z,5.35
2022-08-22T16:29:03.124Z,5.35
2022-08-22T16:31:34.780Z,5.00
2022-08-22T16:34:26.493Z,5.15
2022-08-22T16:37:14.916Z,5.30
2022-08-22T16:39:48.322Z,5.20
2022-08-22T16:42:23.897Z,5.28
2022-08-22T16:45:02.615Z,5.47
2022-08-22T16:47:37.377Z,5.28
2022-08-22T16:50:16.161Z,5.30
2022-08-22T16:53:07.719Z,5.40
2022-08-22T16:55:35.927Z,5.22
2022-08-22T16:58:56.861Z,5.20
2022-08-22T17:01:56.565Z,5.15
2022-08-22T17:04:55.511Z,5.10
2022-08-22T17:07:51.530Z,5.07
2022-08-22T17:10:27.966Z,5.00
2022-08-22T17:13:33.046Z,4.90
2022-08-22T17:16:13.236Z,4.93
2022-08-22T17:18:40.127Z,5.00
2022-08-22T17:21:17.670Z,5.07
2022-08-22T17:23:59.206Z,5.05
2022-08-22T17:27:02.959Z,5.28
2022-08-22T17:29:47.556Z,5.13
2022-08-22T17:32:32.318Z,5.55
2022-08-22T17:35:12.476Z,5.50
2022-08-22T17:37:57.287Z,5.37
2022-08-22T17:41:00.923Z,5.40
2022-08-22T17:43:48.530Z,5.32
2022-08-22T17:46:48.234Z,5.13
2022-08-22T17:49:45.352Z,5.07
2022-08-22T17:52:22.286Z,5.03
2022-08-22T17:54:58.944Z,5.45
2022-08-22T17:57:34.105Z,5.30
2022-08-22T18:00:11.216Z,5.35
2022-08-22T18:02:44.481Z,5.70
2022-08-22T18:05:20.337Z,5.80
2022-08-22T18:08:01.291Z,5.78
2022-08-22T18:10:31.392Z,5.85
2022-08-22T18:13:10.164Z,5.83
2022-08-22T18:16:01.072Z,5.35
2022-08-22T18:18:37.692Z,5.60
2022-08-22T18:21:04.240Z,5.40
2022-08-22T18:23:40.713Z,5.85
2022-08-22T18:26:38.861Z,5.82
2022-08-22T18:29:16.831Z,5.60
2022-08-22T18:31:51.561Z,5.60
2022-08-22T18:34:26.024Z,5.82
2022-08-22T18:37:03.983Z,5.70
2022-08-22T18:39:45.448Z,5.40
2022-08-22T18:42:47.694Z,4.90
2022-08-22T18:45:43.892Z,4.80
2022-08-22T18:48:21.322Z,5.10
2022-08-22T18:50:49.242Z,4.70
2022-08-22T18:53:39.075Z,4.88
2022-08-22T18:56:13.326Z,4.30
2022-08-22T18:58:45.836Z,4.60
2022-08-22T19:01:50.717Z,5.00
2022-08-22T19:04:44.215Z,4.90
2022-08-22T19:07:36.925Z,5.15
2022-08-22T19:10:29.408Z,4.93
2022-08-22T19:13:01.680Z,4.90
2022-08-22T19:15:46.798Z,5.20
2022-08-22T19:18:30.802Z,5.07
2022-08-22T19:21:37.688Z,4.68
2022-08-22T19:24:08.325Z,5.13
2022-08-22T19:26:44.875Z,4.97
2022-08-22T19:29:15.926Z,4.90
2022-08-22T19:31:56.191Z,5.30
2022-08-22T19:34:29.249Z,5.28
2022-08-22T19:37:33.106Z,5.03
2022-08-22T19:40:11.983Z,5.32
2022-08-22T19:42:41.334Z,4.97
2022-08-22T19:45:20.153Z,5.15
2022-08-22T19:47:55.664Z,4.70
2022-08-22T19:50:22.311Z,4.63
2022-08-22T19:52:57.897Z,4.70
2022-08-22T19:55:27.651Z,4.90
2022-08-22T19:58:12.777Z,4.72
2022-08-22T20:00:55.035Z,4.60
2022-08-22T20:03:53.103Z,4.82
2022-08-22T20:06:47.806Z,5.22
2022-08-22T20:09:33.787Z,5.00
2022-08-22T20:12:19.707Z,5.00
2022-08-22T20:14:47.499Z,5.03
2022-08-22T20:17:33.909Z,4.97
2022-08-22T20:20:18.555Z,5.10
2022-08-22T20:22:52.714Z,5.07
2022-08-22T20:25:42.930Z,4.80
2022-08-22T20:28:45.728Z,4.80
2022-08-22T20:31:20.779Z,5.30
2022-08-22T20:33:53.579Z,4.97
2022-08-22T20:36:27.641Z,5.20
2022-08-22T20:39:01.728Z,5.30
2022-08-22T20:41:36.864Z,5.07
2022-08-22T20:44:19.310Z,5.18
2022-08-22T20:46:55.348Z,5.30
2022-08-22T20:49:31.532Z,5.20
2022-08-22T20:52:01.557Z,5.22
2022-08-22T20:54:32.415Z,4.80
2022-08-22T20:57:01.292Z,5.20
2022-08-22T20:59:30.041Z,5.38
2022-08-22T21:02:04.071Z,5.10
2022-08-22T21:04:42.700Z,5.15
2022-08-22T21:07:09.512Z,5.10
2022-08-22T21:09:54.758Z,4.90
2022-08-22T21:12:22.301Z,5.30
2022-08-22T21:14:48.814Z,5.22
2022-08-22T21:17:21.684Z,5.20
2022-08-22T21:19:48.547Z,5.18
2022-08-22T21:22:18.900Z,5.15
2022-08-22T21:24:45.650Z,4.90
2022-08-22T21:27:28.819Z,4.80
2022-08-22T21:29:56.406Z,5.35
2022-08-22T21:32:32.790Z,5.43
2022-08-22T21:34:59.847Z,5.82
2022-08-22T21:37:45.776Z,5.30
2022-08-22T21:40:23.814Z,5.80
2022-08-22T21:43:12.026Z,5.40
2022-08-22T21:45:38.472Z,5.47
2022-08-22T21:48:38.501Z,5.28
2022-08-22T21:51:22.370Z,5.43
2022-08-22T21:53:48.983Z,5.30
2022-08-22T21:59:50.660Z,5.72
2022-08-22T22:02:36.422Z,5.55
2022-08-22T22:05:11.319Z,5.50
2022-08-22T22:07:40.750Z,6.13
2022-08-22T22:10:09.259Z,5.38
2022-08-22T22:12:39.197Z,5.53
2022-08-22T22:15:06.165Z,5.80
2022-08-22T22:17:32.662Z,5.60
2022-08-22T22:19:59.160Z,5.55
2022-08-22T22:22:25.663Z,5.57
2022-08-22T22:24:52.167Z,5.70
2022-08-22T22:27:18.748Z,5.50
2022-08-22T22:29:45.517Z,5.70
2022-08-22T22:32:12.005Z,5.60
2022-08-22T22:34:39.108Z,5.35
2022-08-22T22:37:08.147Z,5.70
2022-08-22T22:39:36.049Z,5.82
2022-08-22T22:42:03.548Z,5.63
2022-08-22T22:44:30.669Z,5.55
2022-08-22T22:46:58.807Z,5.82
2022-08-22T22:49:25.300Z,6.05
2022-08-22T22:51:51.930Z,6.00
2022-08-22T22:54:18.501Z,5.90
2022-08-22T22:56:48.005Z,6.03
2022-08-22T22:59:14.934Z,6.30
2022-08-22T23:02:01.264Z,6.00
2022-08-22T23:04:29.000Z,5.95
2022-08-22T23:06:55.756Z,6.03
2022-08-22T23:09:23.860Z,5.53
2022-08-22T23:12:06.465Z,6.10
2022-08-22T23:14:33.877Z,5.93
2022-08-22T23:17:01.316Z,6.10
2022-08-22T23:19:28.811Z,6.38
2022-08-22T23:21:57.592Z,6.00
2022-08-22T23:24:25.626Z,6.05
2022-08-22T23:26:52.458Z,6.15
2022-08-22T23:29:19.171Z,6.05
2022-08-22T23:31:55.081Z,6.32
2022-08-22T23:34:24.824Z,6.03
2022-08-22T23:36:53.655Z,6.10
2022-08-22T23:39:22.607Z,5.55
2022-08-22T23:41:49.708Z,5.88
2022-08-22T23:44:20.023Z,5.95
2022-08-22T23:46:46.968Z,6.13
2022-08-22T23:49:14.293Z,6.00
2022-08-22T23:51:41.888Z,5.90
2022-08-22T23:54:08.600Z,6.10
2022-08-22T23:56:40.541Z,6.25
2022-08-22T23:59:11.491Z,5.95
